sensor_id;sensor_type;location;lat;lon;timestamp;temperature;humidity
66586;SHT30;53444;45.822;16.092;2023-05-10T00:00:38;11.07;81.05
66586;SHT30;53444;45.822;16.092;2023-05-10T00:03:08;11.14;80.70
66586;SHT30;53444;45.822;16.092;2023-05-10T00:05:35;11.19;80.56
66586;SHT30;53444;45.822;16.092;2023-05-10T00:08:01;11.24;80.35
66586;SHT30;53444;45.822;16.092;2023-05-10T00:10:28;11.18;80.44
66586;SHT30;53444;45.822;16.092;2023-05-10T00:12:55;11.04;80.94
66586;SHT30;53444;45.822;16.092;2023-05-10T00:15:23;11.04;81.29
66586;SHT30;53444;45.822;16.092;2023-05-10T00:17:50;11.07;81.29
66586;SHT30;53444;45.822;16.092;2023-05-10T00:20:16;11.19;81.22
66586;SHT30;53444;45.822;16.092;2023-05-10T00:22:43;11.27;80.80
66586;SHT30;53444;45.822;16.092;2023-05-10T00:25:09;11.28;80.81
66586;SHT30;53444;45.822;16.092;2023-05-10T00:27:36;11.32;80.74
66586;SHT30;53444;45.822;16.092;2023-05-10T00:30:04;11.36;80.83
66586;SHT30;53444;45.822;16.092;2023-05-10T00:32:32;11.39;80.78
66586;SHT30;53444;45.822;16.092;2023-05-10T00:34:59;11.48;80.50
66586;SHT30;53444;45.822;16.092;2023-05-10T00:37:26;11.46;80.62
66586;SHT30;53444;45.822;16.092;2023-05-10T00:39:52;11.52;80.71
66586;SHT30;53444;45.822;16.092;2023-05-10T00:42:19;11.61;80.51
66586;SHT30;53444;45.822;16.092;2023-05-10T00:44:46;11.59;80.44
66586;SHT30;53444;45.822;16.092;2023-05-10T00:47:12;11.56;80.77
66586;SHT30;53444;45.822;16.092;2023-05-10T00:49:41;11.56;80.40
66586;SHT30;53444;45.822;16.092;2023-05-10T00:52:08;11.56;80.53
66586;SHT30;53444;45.822;16.092;2023-05-10T00:54:35;11.62;80.47
66586;SHT30;53444;45.822;16.092;2023-05-10T00:57:02;11.62;80.63
66586;SHT30;53444;45.822;16.092;2023-05-10T00:59:29;11.65;80.60
66586;SHT30;53444;45.822;16.092;2023-05-10T01:01:55;11.63;80.59
66586;SHT30;53444;45.822;16.092;2023-05-10T01:04:22;11.69;80.33
66586;SHT30;53444;45.822;16.092;2023-05-10T01:06:52;11.72;80.08
66586;SHT30;53444;45.822;16.092;2023-05-10T01:09:19;11.69;80.13
66586;SHT30;53444;45.822;16.092;2023-05-10T01:11:46;11.72;79.96
66586;SHT30;53444;45.822;16.092;2023-05-10T01:14:14;11.73;79.97
66586;SHT30;53444;45.822;16.092;2023-05-10T01:16:42;11.75;79.69
66586;SHT30;53444;45.822;16.092;2023-05-10T01:19:14;11.73;80.12
66586;SHT30;53444;45.822;16.092;2023-05-10T01:21:49;11.85;80.00
66586;SHT30;53444;45.822;16.092;2023-05-10T01:24:40;11.85;80.20
66586;SHT30;53444;45.822;16.092;2023-05-10T01:27:20;11.93;79.93
66586;SHT30;53444;45.822;16.092;2023-05-10T01:30:09;11.94;79.65
66586;SHT30;53444;45.822;16.092;2023-05-10T01:32:45;12.00;79.37
66586;SHT30;53444;45.822;16.092;2023-05-10T01:35:17;12.00;79.26
66586;SHT30;53444;45.822;16.092;2023-05-10T01:37:49;12.01;79.18
66586;SHT30;53444;45.822;16.092;2023-05-10T01:40:22;12.07;78.94
66586;SHT30;53444;45.822;16.092;2023-05-10T01:42:51;12.07;78.98
66586;SHT30;53444;45.822;16.092;2023-05-10T01:45:24;12.13;78.80
66586;SHT30;53444;45.822;16.092;2023-05-10T01:47:58;12.12;79.02
66586;SHT30;53444;45.822;16.092;2023-05-10T01:50:30;12.09;79.09
66586;SHT30;53444;45.822;16.092;2023-05-10T01:52:58;12.13;79.14
66586;SHT30;53444;45.822;16.092;2023-05-10T01:55:28;12.12;79.41
66586;SHT30;53444;45.822;16.092;2023-05-10T01:58:02;12.13;79.16
66586;SHT30;53444;45.822;16.092;2023-05-10T02:00:29;12.12;79.39
66586;SHT30;53444;45.822;16.092;2023-05-10T02:03:00;12.09;79.55
66586;SHT30;53444;45.822;16.092;2023-05-10T02:05:29;12.13;79.46
66586;SHT30;53444;45.822;16.092;2023-05-10T02:07:59;12.14;79.45
66586;SHT30;53444;45.822;16.092;2023-05-10T02:10:27;12.13;79.66
66586;SHT30;53444;45.822;16.092;2023-05-10T02:12:55;12.03;79.87
66586;SHT30;53444;45.822;16.092;2023-05-10T02:15:25;12.00;79.85
66586;SHT30;53444;45.822;16.092;2023-05-10T02:17:54;12.00;80.00
66586;SHT30;53444;45.822;16.092;2023-05-10T02:20:23;12.10;79.21
66586;SHT30;53444;45.822;16.092;2023-05-10T02:22:52;12.13;78.96
66586;SHT30;53444;45.822;16.092;2023-05-10T02:25:21;12.14;78.85
66586;SHT30;53444;45.822;16.092;2023-05-10T02:27:48;12.13;78.84
66586;SHT30;53444;45.822;16.092;2023-05-10T02:30:16;12.12;78.85
66586;SHT30;53444;45.822;16.092;2023-05-10T02:32:44;12.03;79.06
66586;SHT30;53444;45.822;16.092;2023-05-10T02:35:12;12.03;78.92
66586;SHT30;53444;45.822;16.092;2023-05-10T02:37:41;12.04;79.04
66586;SHT30;53444;45.822;16.092;2023-05-10T02:40:08;11.99;78.97
66586;SHT30;53444;45.822;16.092;2023-05-10T02:42:37;12.06;78.95
66586;SHT30;53444;45.822;16.092;2023-05-10T02:45:08;12.12;78.73
66586;SHT30;53444;45.822;16.092;2023-05-10T02:47:36;12.13;78.70
66586;SHT30;53444;45.822;16.092;2023-05-10T02:50:03;12.12;78.55
66586;SHT30;53444;45.822;16.092;2023-05-10T02:52:38;12.07;78.74
66586;SHT30;53444;45.822;16.092;2023-05-10T02:55:09;12.09;78.60
66586;SHT30;53444;45.822;16.092;2023-05-10T02:57:40;12.10;78.47
66586;SHT30;53444;45.822;16.092;2023-05-10T03:00:08;12.14;78.39
66586;SHT30;53444;45.822;16.092;2023-05-10T03:02:35;12.20;78.27
66586;SHT30;53444;45.822;16.092;2023-05-10T03:05:01;12.19;78.20
66586;SHT30;53444;45.822;16.092;2023-05-10T03:07:28;12.23;78.11
66586;SHT30;53444;45.822;16.092;2023-05-10T03:09:55;12.29;77.93
66586;SHT30;53444;45.822;16.092;2023-05-10T03:12:33;12.30;77.64
66586;SHT30;53444;45.822;16.092;2023-05-10T03:15:09;12.34;77.53
66586;SHT30;53444;45.822;16.092;2023-05-10T03:17:46;12.34;77.31
66586;SHT30;53444;45.822;16.092;2023-05-10T03:20:21;12.38;76.99
66586;SHT30;53444;45.822;16.092;2023-05-10T03:22:52;12.44;76.80
66586;SHT30;53444;45.822;16.092;2023-05-10T03:25:20;12.44;77.01
66586;SHT30;53444;45.822;16.092;2023-05-10T03:27:50;12.42;76.89
66586;SHT30;53444;45.822;16.092;2023-05-10T03:30:17;12.48;76.66
66586;SHT30;53444;45.822;16.092;2023-05-10T03:32:44;12.44;76.87
66586;SHT30;53444;45.822;16.092;2023-05-10T03:35:12;12.40;77.11
66586;SHT30;53444;45.822;16.092;2023-05-10T03:37:39;12.40;77.17
66586;SHT30;53444;45.822;16.092;2023-05-10T03:40:07;12.48;77.13
66586;SHT30;53444;45.822;16.092;2023-05-10T03:42:34;12.42;77.27
66586;SHT30;53444;45.822;16.092;2023-05-10T03:45:02;12.45;77.45
66586;SHT30;53444;45.822;16.092;2023-05-10T03:47:29;12.50;77.61
66586;SHT30;53444;45.822;16.092;2023-05-10T03:49:56;12.51;77.42
66586;SHT30;53444;45.822;16.092;2023-05-10T03:52:22;12.48;77.57
66586;SHT30;53444;45.822;16.092;2023-05-10T03:54:49;12.51;77.35
66586;SHT30;53444;45.822;16.092;2023-05-10T03:57:15;12.55;77.31
66586;SHT30;53444;45.822;16.092;2023-05-10T03:59:42;12.54;77.56
66586;SHT30;53444;45.822;16.092;2023-05-10T04:02:10;12.54;77.39
66586;SHT30;53444;45.822;16.092;2023-05-10T04:04:36;12.47;77.98
66586;SHT30;53444;45.822;16.092;2023-05-10T04:07:03;12.51;77.75
66586;SHT30;53444;45.822;16.092;2023-05-10T04:09:30;12.44;77.96
66586;SHT30;53444;45.822;16.092;2023-05-10T04:11:58;12.52;77.58
66586;SHT30;53444;45.822;16.092;2023-05-10T04:14:25;12.48;77.85
66586;SHT30;53444;45.822;16.092;2023-05-10T04:16:51;12.48;77.78
66586;SHT30;53444;45.822;16.092;2023-05-10T04:19:19;12.50;77.64
66586;SHT30;53444;45.822;16.092;2023-05-10T04:21:46;12.50;77.75
66586;SHT30;53444;45.822;16.092;2023-05-10T04:24:12;12.40;77.99
66586;SHT30;53444;45.822;16.092;2023-05-10T04:26:40;12.51;77.98
66586;SHT30;53444;45.822;16.092;2023-05-10T04:29:06;12.47;78.04
66586;SHT30;53444;45.822;16.092;2023-05-10T04:31:33;12.50;78.17
66586;SHT30;53444;45.822;16.092;2023-05-10T04:34:01;12.42;78.27
66586;SHT30;53444;45.822;16.092;2023-05-10T04:36:29;12.45;78.28
66586;SHT30;53444;45.822;16.092;2023-05-10T04:38:57;12.42;78.57
66586;SHT30;53444;45.822;16.092;2023-05-10T04:41:24;12.44;78.75
66586;SHT30;53444;45.822;16.092;2023-05-10T04:43:51;12.42;78.77
66586;SHT30;53444;45.822;16.092;2023-05-10T04:46:17;12.47;78.74
66586;SHT30;53444;45.822;16.092;2023-05-10T04:48:44;12.47;78.79
66586;SHT30;53444;45.822;16.092;2023-05-10T04:51:11;12.47;78.80
66586;SHT30;53444;45.822;16.092;2023-05-10T04:53:39;12.52;78.66
66586;SHT30;53444;45.822;16.092;2023-05-10T04:56:06;12.52;78.40
66586;SHT30;53444;45.822;16.092;2023-05-10T04:58:35;12.60;78.71
66586;SHT30;53444;45.822;16.092;2023-05-10T05:01:05;12.60;78.64
66586;SHT30;53444;45.822;16.092;2023-05-10T05:03:33;12.60;78.61
66586;SHT30;53444;45.822;16.092;2023-05-10T05:06:00;12.55;78.93
66586;SHT30;53444;45.822;16.092;2023-05-10T05:08:26;12.45;79.86
66586;SHT30;53444;45.822;16.092;2023-05-10T05:10:55;12.62;79.02
66586;SHT30;53444;45.822;16.092;2023-05-10T05:13:21;12.81;78.36
66586;SHT30;53444;45.822;16.092;2023-05-10T05:15:48;12.84;78.45
66586;SHT30;53444;45.822;16.092;2023-05-10T05:18:14;12.85;78.05
66586;SHT30;53444;45.822;16.092;2023-05-10T05:20:41;12.89;78.42
66586;SHT30;53444;45.822;16.092;2023-05-10T05:23:08;13.15;77.54
66586;SHT30;53444;45.822;16.092;2023-05-10T05:25:34;13.22;77.16
66586;SHT30;53444;45.822;16.092;2023-05-10T05:28:03;13.26;76.98
66586;SHT30;53444;45.822;16.092;2023-05-10T05:30:29;13.15;77.26
66586;SHT30;53444;45.822;16.092;2023-05-10T05:32:56;13.22;77.69
66586;SHT30;53444;45.822;16.092;2023-05-10T05:35:23;13.38;76.87
66586;SHT30;53444;45.822;16.092;2023-05-10T05:37:50;13.33;76.69
66586;SHT30;53444;45.822;16.092;2023-05-10T05:40:17;13.38;76.37
66586;SHT30;53444;45.822;16.092;2023-05-10T05:42:43;13.43;76.45
66586;SHT30;53444;45.822;16.092;2023-05-10T05:45:12;13.29;77.17
66586;SHT30;53444;45.822;16.092;2023-05-10T05:47:39;13.33;77.23
66586;SHT30;53444;45.822;16.092;2023-05-10T05:50:07;13.53;76.95
66586;SHT30;53444;45.822;16.092;2023-05-10T05:52:33;13.75;76.68
66586;SHT30;53444;45.822;16.092;2023-05-10T05:55:01;13.93;76.30
66586;SHT30;53444;45.822;16.092;2023-05-10T05:57:28;14.07;75.96
66586;SHT30;53444;45.822;16.092;2023-05-10T05:59:54;14.28;75.69
66586;SHT30;53444;45.822;16.092;2023-05-10T06:02:22;14.54;75.23
66586;SHT30;53444;45.822;16.092;2023-05-10T06:04:49;14.44;75.28
66586;SHT30;53444;45.822;16.092;2023-05-10T06:07:16;14.56;74.99
66586;SHT30;53444;45.822;16.092;2023-05-10T06:09:43;14.80;74.54
66586;SHT30;53444;45.822;16.092;2023-05-10T06:12:09;14.62;74.49
66586;SHT30;53444;45.822;16.092;2023-05-10T06:14:37;14.56;74.42
66586;SHT30;53444;45.822;16.092;2023-05-10T06:17:03;14.48;74.83
66586;SHT30;53444;45.822;16.092;2023-05-10T06:19:31;14.34;75.29
66586;SHT30;53444;45.822;16.092;2023-05-10T06:21:58;14.45;74.76
66586;SHT30;53444;45.822;16.092;2023-05-10T06:24:24;14.35;75.26
66586;SHT30;53444;45.822;16.092;2023-05-10T06:26:53;14.44;75.42
66586;SHT30;53444;45.822;16.092;2023-05-10T06:29:20;14.52;76.00
66586;SHT30;53444;45.822;16.092;2023-05-10T06:31:47;14.51;75.24
66586;SHT30;53444;45.822;16.092;2023-05-10T06:34:14;14.61;74.87
66586;SHT30;53444;45.822;16.092;2023-05-10T06:36:42;14.55;75.26
66586;SHT30;53444;45.822;16.092;2023-05-10T06:39:08;14.62;75.22
66586;SHT30;53444;45.822;16.092;2023-05-10T06:41:36;14.75;75.16
66586;SHT30;53444;45.822;16.092;2023-05-10T06:44:03;14.82;75.17
66586;SHT30;53444;45.822;16.092;2023-05-10T06:46:30;14.90;74.81
66586;SHT30;53444;45.822;16.092;2023-05-10T06:48:57;14.75;75.52
66586;SHT30;53444;45.822;16.092;2023-05-10T06:51:24;14.69;75.24
66586;SHT30;53444;45.822;16.092;2023-05-10T06:53:52;14.77;74.94
66586;SHT30;53444;45.822;16.092;2023-05-10T06:56:19;14.97;75.19
66586;SHT30;53444;45.822;16.092;2023-05-10T06:58:46;15.27;74.36
66586;SHT30;53444;45.822;16.092;2023-05-10T07:01:13;15.40;73.79
66586;SHT30;53444;45.822;16.092;2023-05-10T07:03:40;15.38;73.20
66586;SHT30;53444;45.822;16.092;2023-05-10T07:06:06;15.59;72.44
66586;SHT30;53444;45.822;16.092;2023-05-10T07:08:33;15.38;72.54
66586;SHT30;53444;45.822;16.092;2023-05-10T07:11:02;15.41;72.12
66586;SHT30;53444;45.822;16.092;2023-05-10T07:13:30;15.47;73.12
66586;SHT30;53444;45.822;16.092;2023-05-10T07:15:57;15.33;73.03
66586;SHT30;53444;45.822;16.092;2023-05-10T07:18:24;15.69;72.75
66586;SHT30;53444;45.822;16.092;2023-05-10T07:20:50;15.92;72.56
66586;SHT30;53444;45.822;16.092;2023-05-10T07:23:17;15.74;72.81
66586;SHT30;53444;45.822;16.092;2023-05-10T07:25:45;15.95;72.09
66586;SHT30;53444;45.822;16.092;2023-05-10T07:28:13;16.01;71.50
66586;SHT30;53444;45.822;16.092;2023-05-10T07:30:40;15.81;71.47
66586;SHT30;53444;45.822;16.092;2023-05-10T07:33:06;15.74;71.84
66586;SHT30;53444;45.822;16.092;2023-05-10T07:35:33;15.89;71.04
66586;SHT30;53444;45.822;16.092;2023-05-10T07:38:00;15.85;70.77
66586;SHT30;53444;45.822;16.092;2023-05-10T07:40:28;15.99;71.55
66586;SHT30;53444;45.822;16.092;2023-05-10T07:42:55;16.26;71.19
66586;SHT30;53444;45.822;16.092;2023-05-10T07:45:29;16.10;70.96
66586;SHT30;53444;45.822;16.092;2023-05-10T07:47:55;16.36;70.44
66586;SHT30;53444;45.822;16.092;2023-05-10T07:50:22;16.34;70.70
66586;SHT30;53444;45.822;16.092;2023-05-10T07:52:49;16.42;70.95
66586;SHT30;53444;45.822;16.092;2023-05-10T07:55:18;16.57;69.91
66586;SHT30;53444;45.822;16.092;2023-05-10T07:57:46;16.78;69.90
66586;SHT30;53444;45.822;16.092;2023-05-10T08:00:16;16.70;69.68
66586;SHT30;53444;45.822;16.092;2023-05-10T08:02:45;16.59;70.31
66586;SHT30;53444;45.822;16.092;2023-05-10T08:05:11;16.66;70.36
66586;SHT30;53444;45.822;16.092;2023-05-10T08:07:38;16.71;69.73
66586;SHT30;53444;45.822;16.092;2023-05-10T08:10:07;16.87;70.03
66586;SHT30;53444;45.822;16.092;2023-05-10T08:12:33;17.00;69.67
66586;SHT30;53444;45.822;16.092;2023-05-10T08:15:00;17.01;69.85
66586;SHT30;53444;45.822;16.092;2023-05-10T08:17:27;17.55;68.05
66586;SHT30;53444;45.822;16.092;2023-05-10T08:19:55;17.62;67.15
66586;SHT30;53444;45.822;16.092;2023-05-10T08:22:21;17.76;68.17
66586;SHT30;53444;45.822;16.092;2023-05-10T08:24:48;17.86;66.82
66586;SHT30;53444;45.822;16.092;2023-05-10T08:27:15;17.83;67.21
66586;SHT30;53444;45.822;16.092;2023-05-10T08:29:41;17.99;66.50
66586;SHT30;53444;45.822;16.092;2023-05-10T08:32:08;17.76;66.46
66586;SHT30;53444;45.822;16.092;2023-05-10T08:34:35;18.11;66.19
66586;SHT30;53444;45.822;16.092;2023-05-10T08:37:03;18.20;65.58
66586;SHT30;53444;45.822;16.092;2023-05-10T08:39:34;18.18;65.04
66586;SHT30;53444;45.822;16.092;2023-05-10T08:42:02;18.06;64.76
66586;SHT30;53444;45.822;16.092;2023-05-10T08:44:29;18.16;64.89
66586;SHT30;53444;45.822;16.092;2023-05-10T08:46:57;18.38;64.46
66586;SHT30;53444;45.822;16.092;2023-05-10T08:49:27;18.37;65.20
66586;SHT30;53444;45.822;16.092;2023-05-10T08:51:57;18.37;65.17
66586;SHT30;53444;45.822;16.092;2023-05-10T08:54:27;18.48;65.19
66586;SHT30;53444;45.822;16.092;2023-05-10T08:56:54;18.61;63.24
66586;SHT30;53444;45.822;16.092;2023-05-10T08:59:20;18.82;63.53
66586;SHT30;53444;45.822;16.092;2023-05-10T09:01:48;18.69;64.44
66586;SHT30;53444;45.822;16.092;2023-05-10T09:04:16;18.54;63.99
66586;SHT30;53444;45.822;16.092;2023-05-10T09:06:43;18.92;63.82
66586;SHT30;53444;45.822;16.092;2023-05-10T09:09:09;18.89;64.35
66586;SHT30;53444;45.822;16.092;2023-05-10T09:11:37;19.02;64.88
66586;SHT30;53444;45.822;16.092;2023-05-10T09:14:04;19.03;63.94
66586;SHT30;53444;45.822;16.092;2023-05-10T09:16:31;18.79;63.94
66586;SHT30;53444;45.822;16.092;2023-05-10T09:18:58;18.78;62.14
66586;SHT30;53444;45.822;16.092;2023-05-10T09:21:25;18.91;63.20
66586;SHT30;53444;45.822;16.092;2023-05-10T09:23:52;18.82;62.25
66586;SHT30;53444;45.822;16.092;2023-05-10T09:26:22;18.75;63.44
66586;SHT30;53444;45.822;16.092;2023-05-10T09:28:54;18.62;64.08
66586;SHT30;53444;45.822;16.092;2023-05-10T09:31:24;18.85;63.51
66586;SHT30;53444;45.822;16.092;2023-05-10T09:33:51;18.62;62.82
66586;SHT30;53444;45.822;16.092;2023-05-10T09:36:18;18.91;61.59
66586;SHT30;53444;45.822;16.092;2023-05-10T09:38:45;18.69;60.62
66586;SHT30;53444;45.822;16.092;2023-05-10T09:41:17;18.88;59.26
66586;SHT30;53444;45.822;16.092;2023-05-10T09:43:44;18.54;61.21
66586;SHT30;53444;45.822;16.092;2023-05-10T09:46:12;18.68;61.00
66586;SHT30;53444;45.822;16.092;2023-05-10T09:48:41;18.78;61.49
66586;SHT30;53444;45.822;16.092;2023-05-10T09:51:08;18.68;61.93
66586;SHT30;53444;45.822;16.092;2023-05-10T09:53:35;18.55;62.79
66586;SHT30;53444;45.822;16.092;2023-05-10T09:56:02;18.65;61.99
66586;SHT30;53444;45.822;16.092;2023-05-10T09:58:29;18.61;62.76
66586;SHT30;53444;45.822;16.092;2023-05-10T10:00:56;18.65;61.74
66586;SHT30;53444;45.822;16.092;2023-05-10T10:03:24;18.68;61.73
66586;SHT30;53444;45.822;16.092;2023-05-10T10:05:50;18.61;61.21
66586;SHT30;53444;45.822;16.092;2023-05-10T10:08:18;18.44;60.38
66586;SHT30;53444;45.822;16.092;2023-05-10T10:10:46;18.64;58.85
66586;SHT30;53444;45.822;16.092;2023-05-10T10:13:13;18.78;59.24
66586;SHT30;53444;45.822;16.092;2023-05-10T10:15:42;18.84;59.96
66586;SHT30;53444;45.822;16.092;2023-05-10T10:18:12;18.51;59.55
66586;SHT30;53444;45.822;16.092;2023-05-10T10:20:40;18.61;61.26
66586;SHT30;53444;45.822;16.092;2023-05-10T10:23:08;18.60;59.57
66586;SHT30;53444;45.822;16.092;2023-05-10T10:25:35;18.60;59.13
66586;SHT30;53444;45.822;16.092;2023-05-10T10:28:16;18.87;57.84
66586;SHT30;53444;45.822;16.092;2023-05-10T10:30:49;19.02;59.02
66586;SHT30;53444;45.822;16.092;2023-05-10T10:33:48;19.19;59.03
66586;SHT30;53444;45.822;16.092;2023-05-10T10:36:19;19.23;58.30
66586;SHT30;53444;45.822;16.092;2023-05-10T10:38:59;19.06;59.91
66586;SHT30;53444;45.822;16.092;2023-05-10T10:41:31;19.15;60.11
66586;SHT30;53444;45.822;16.092;2023-05-10T10:44:23;19.33;59.12
66586;SHT30;53444;45.822;16.092;2023-05-10T10:47:07;19.50;59.59
66586;SHT30;53444;45.822;16.092;2023-05-10T10:49:45;19.40;59.67
66586;SHT30;53444;45.822;16.092;2023-05-10T10:52:27;19.50;59.95
66586;SHT30;53444;45.822;16.092;2023-05-10T10:55:01;19.56;60.27
66586;SHT30;53444;45.822;16.092;2023-05-10T10:57:30;19.36;60.49
66586;SHT30;53444;45.822;16.092;2023-05-10T11:00:22;19.35;60.46
66586;SHT30;53444;45.822;16.092;2023-05-10T11:02:50;19.39;59.70
66586;SHT30;53444;45.822;16.092;2023-05-10T11:05:35;19.18;60.36
66586;SHT30;53444;45.822;16.092;2023-05-10T11:08:19;18.98;60.46
66586;SHT30;53444;45.822;16.092;2023-05-10T11:13:38;18.88;60.89
66586;SHT30;53444;45.822;16.092;2023-05-10T11:16:16;19.03;61.03
66586;SHT30;53444;45.822;16.092;2023-05-10T11:18:57;19.09;61.41
66586;SHT30;53444;45.822;16.092;2023-05-10T11:21:24;18.79;60.69
66586;SHT30;53444;45.822;16.092;2023-05-10T11:23:53;18.74;60.86
66586;SHT30;53444;45.822;16.092;2023-05-10T11:26:23;18.95;61.57
66586;SHT30;53444;45.822;16.092;2023-05-10T11:28:51;19.01;60.44
66586;SHT30;53444;45.822;16.092;2023-05-10T11:31:19;19.02;60.77
66586;SHT30;53444;45.822;16.092;2023-05-10T11:33:48;19.13;59.59
66586;SHT30;53444;45.822;16.092;2023-05-10T11:36:17;19.19;60.25
66586;SHT30;53444;45.822;16.092;2023-05-10T11:38:44;18.84;60.71
66586;SHT30;53444;45.822;16.092;2023-05-10T11:41:13;18.92;60.91
66586;SHT30;53444;45.822;16.092;2023-05-10T11:43:40;18.84;61.50
66586;SHT30;53444;45.822;16.092;2023-05-10T11:46:10;19.09;60.39
66586;SHT30;53444;45.822;16.092;2023-05-10T11:52:10;19.01;60.08
66586;SHT30;53444;45.822;16.092;2023-05-10T11:58:23;19.06;60.30
66586;SHT30;53444;45.822;16.092;2023-05-10T12:00:53;18.79;59.32
66586;SHT30;53444;45.822;16.092;2023-05-10T12:03:20;18.95;59.77
66586;SHT30;53444;45.822;16.092;2023-05-10T12:05:47;18.91;58.97
66586;SHT30;53444;45.822;16.092;2023-05-10T12:08:14;18.94;59.51
66586;SHT30;53444;45.822;16.092;2023-05-10T12:10:41;18.71;59.70
66586;SHT30;53444;45.822;16.092;2023-05-10T12:13:11;18.82;59.73
66586;SHT30;53444;45.822;16.092;2023-05-10T12:15:43;18.72;59.69
66586;SHT30;53444;45.822;16.092;2023-05-10T12:18:10;18.81;59.84
66586;SHT30;53444;45.822;16.092;2023-05-10T12:20:38;18.92;59.38
66586;SHT30;53444;45.822;16.092;2023-05-10T12:23:05;18.78;59.52
66586;SHT30;53444;45.822;16.092;2023-05-10T12:25:33;18.76;60.22
66586;SHT30;53444;45.822;16.092;2023-05-10T12:28:02;18.72;60.33
66586;SHT30;53444;45.822;16.092;2023-05-10T12:30:32;18.84;60.16
66586;SHT30;53444;45.822;16.092;2023-05-10T12:33:11;18.96;60.08
66586;SHT30;53444;45.822;16.092;2023-05-10T12:35:44;19.12;59.75
66586;SHT30;53444;45.822;16.092;2023-05-10T12:38:28;19.25;59.73
66586;SHT30;53444;45.822;16.092;2023-05-10T12:40:57;19.30;59.83
66586;SHT30;53444;45.822;16.092;2023-05-10T12:43:23;19.39;60.02
66586;SHT30;53444;45.822;16.092;2023-05-10T12:45:50;19.33;59.04
66586;SHT30;53444;45.822;16.092;2023-05-10T12:48:18;19.33;58.43
66586;SHT30;53444;45.822;16.092;2023-05-10T12:50:46;19.36;58.12
66586;SHT30;53444;45.822;16.092;2023-05-10T12:53:13;19.23;58.43
66586;SHT30;53444;45.822;16.092;2023-05-10T12:55:40;19.18;57.77
66586;SHT30;53444;45.822;16.092;2023-05-10T12:58:07;19.26;57.27
66586;SHT30;53444;45.822;16.092;2023-05-10T13:00:34;19.33;57.62
66586;SHT30;53444;45.822;16.092;2023-05-10T13:03:03;19.29;57.63
66586;SHT30;53444;45.822;16.092;2023-05-10T13:05:31;19.27;57.67
66586;SHT30;53444;45.822;16.092;2023-05-10T13:07:58;19.45;56.21
66586;SHT30;53444;45.822;16.092;2023-05-10T13:10:25;19.50;55.89
66586;SHT30;53444;45.822;16.092;2023-05-10T13:12:52;19.47;56.17
66586;SHT30;53444;45.822;16.092;2023-05-10T13:15:18;19.42;56.52
66586;SHT30;53444;45.822;16.092;2023-05-10T13:17:45;19.42;56.32
66586;SHT30;53444;45.822;16.092;2023-05-10T13:20:12;19.50;57.46
66586;SHT30;53444;45.822;16.092;2023-05-10T13:22:40;19.35;57.06
66586;SHT30;53444;45.822;16.092;2023-05-10T13:25:08;19.50;57.61
66586;SHT30;53444;45.822;16.092;2023-05-10T13:27:34;19.54;56.91
66586;SHT30;53444;45.822;16.092;2023-05-10T13:30:01;19.35;57.65
66586;SHT30;53444;45.822;16.092;2023-05-10T13:32:28;19.33;57.87
66586;SHT30;53444;45.822;16.092;2023-05-10T13:34:55;19.29;57.30
66586;SHT30;53444;45.822;16.092;2023-05-10T13:37:22;19.22;57.31
66586;SHT30;53444;45.822;16.092;2023-05-10T13:39:50;19.11;58.09
66586;SHT30;53444;45.822;16.092;2023-05-10T13:42:17;19.08;57.88
66586;SHT30;53444;45.822;16.092;2023-05-10T13:44:43;19.08;58.38
66586;SHT30;53444;45.822;16.092;2023-05-10T13:47:10;19.12;59.20
66586;SHT30;53444;45.822;16.092;2023-05-10T13:49:37;19.08;59.39
66586;SHT30;53444;45.822;16.092;2023-05-10T13:52:04;19.11;60.10
66586;SHT30;53444;45.822;16.092;2023-05-10T13:54:32;19.15;59.25
66586;SHT30;53444;45.822;16.092;2023-05-10T13:57:00;19.25;59.72
66586;SHT30;53444;45.822;16.092;2023-05-10T13:59:27;19.40;59.48
66586;SHT30;53444;45.822;16.092;2023-05-10T14:01:53;19.46;59.10
66586;SHT30;53444;45.822;16.092;2023-05-10T14:04:20;19.49;58.64
66586;SHT30;53444;45.822;16.092;2023-05-10T14:06:47;19.56;57.60
66586;SHT30;53444;45.822;16.092;2023-05-10T14:09:13;19.53;58.57
66586;SHT30;53444;45.822;16.092;2023-05-10T14:11:40;19.52;59.65
66586;SHT30;53444;45.822;16.092;2023-05-10T14:14:09;19.50;60.35
66586;SHT30;53444;45.822;16.092;2023-05-10T14:16:36;19.43;60.51
66586;SHT30;53444;45.822;16.092;2023-05-10T14:19:03;19.49;61.07
66586;SHT30;53444;45.822;16.092;2023-05-10T14:21:30;19.47;59.64
66586;SHT30;53444;45.822;16.092;2023-05-10T14:23:56;19.29;60.71
66586;SHT30;53444;45.822;16.092;2023-05-10T14:26:23;19.13;61.97
66586;SHT30;53444;45.822;16.092;2023-05-10T14:28:50;19.06;61.57
66586;SHT30;53444;45.822;16.092;2023-05-10T14:31:18;18.95;62.85
66586;SHT30;53444;45.822;16.092;2023-05-10T14:33:45;18.96;63.79
66586;SHT30;53444;45.822;16.092;2023-05-10T14:36:12;18.95;62.05
66586;SHT30;53444;45.822;16.092;2023-05-10T14:38:39;18.98;61.48
66586;SHT30;53444;45.822;16.092;2023-05-10T14:41:05;18.96;61.43
66586;SHT30;53444;45.822;16.092;2023-05-10T14:43:32;18.88;61.53
66586;SHT30;53444;45.822;16.092;2023-05-10T14:45:59;18.81;62.51
66586;SHT30;53444;45.822;16.092;2023-05-10T14:48:27;18.64;63.22
66586;SHT30;53444;45.822;16.092;2023-05-10T14:50:54;18.72;62.08
66586;SHT30;53444;45.822;16.092;2023-05-10T14:53:21;18.81;61.38
66586;SHT30;53444;45.822;16.092;2023-05-10T14:55:47;18.81;60.80
66586;SHT30;53444;45.822;16.092;2023-05-10T14:58:14;18.79;60.66
66586;SHT30;53444;45.822;16.092;2023-05-10T15:00:41;18.75;60.42
66586;SHT30;53444;45.822;16.092;2023-05-10T15:03:08;18.65;60.79
66586;SHT30;53444;45.822;16.092;2023-05-10T15:05:36;18.78;60.51
66586;SHT30;53444;45.822;16.092;2023-05-10T15:08:03;18.89;60.41
66586;SHT30;53444;45.822;16.092;2023-05-10T15:10:30;18.81;60.74
66586;SHT30;53444;45.822;16.092;2023-05-10T15:12:57;18.74;60.58
66586;SHT30;53444;45.822;16.092;2023-05-10T15:15:24;18.81;60.55
66586;SHT30;53444;45.822;16.092;2023-05-10T15:17:51;18.61;61.69
66586;SHT30;53444;45.822;16.092;2023-05-10T15:20:17;18.67;61.67
66586;SHT30;53444;45.822;16.092;2023-05-10T15:22:45;18.75;61.82
66586;SHT30;53444;45.822;16.092;2023-05-10T15:25:12;18.65;62.78
66586;SHT30;53444;45.822;16.092;2023-05-10T15:27:39;18.64;62.21
66586;SHT30;53444;45.822;16.092;2023-05-10T15:30:07;18.62;61.83
66586;SHT30;53444;45.822;16.092;2023-05-10T15:32:34;18.55;61.83